createdAt,value
2018-12-21T00:02:13.851Z,16.97
2018-12-21T00:04:44.043Z,10.07
2018-12-21T00:07:13.243Z,17.23
2018-12-21T00:09:42.334Z,18.90
2018-12-21T00:12:11.425Z,10.20
2018-12-21T00:14:41.904Z,12.87
2018-12-21T00:17:11.818Z,10.13
2018-12-21T00:19:41.084Z,6.33
2018-12-21T00:22:10.260Z,12.50
2018-12-21T00:24:40.247Z,13.23
2018-12-21T00:27:09.299Z,14.50
2018-12-21T00:29:39.012Z,15.73
2018-12-21T00:32:13.203Z,11.33
2018-12-21T00:34:47.251Z,5.47
2018-12-21T00:37:21.393Z,6.57
2018-12-21T00:39:55.519Z,1.80
2018-12-21T00:42:30.271Z,2.90
2018-12-21T00:45:03.413Z,4.27
2018-12-21T00:47:32.596Z,3.20
2018-12-21T00:50:01.690Z,3.87
2018-12-21T00:52:30.898Z,1.03
2018-12-21T00:54:59.997Z,2.73
2018-12-21T00:57:29.377Z,2.80
2018-12-21T00:59:58.665Z,3.23
2018-12-21T01:02:27.740Z,1.63
2018-12-21T01:04:57.125Z,0.80
2018-12-21T01:07:26.419Z,1.67
2018-12-21T01:09:55.687Z,0.17
2018-12-21T01:12:24.931Z,2.13
2018-12-21T01:14:54.190Z,0.50
2018-12-21T01:17:24.323Z,3.00
2018-12-21T01:19:53.454Z,0.40
2018-12-21T01:22:22.699Z,0.10
2018-12-21T01:24:51.910Z,1.17
2018-12-21T01:27:21.032Z,0.83
2018-12-21T01:29:50.201Z,0.93
2018-12-21T01:32:19.485Z,1.50
2018-12-21T01:34:48.635Z,0.10
2018-12-21T01:37:17.870Z,0.97
2018-12-21T01:39:46.991Z,0.20
2018-12-21T01:42:16.087Z,0.20
2018-12-21T01:44:45.323Z,0.20
2018-12-21T01:47:14.526Z,0.60
2018-12-21T01:49:43.799Z,0.07
2018-12-21T01:52:12.927Z,0.00
2018-12-21T01:54:42.054Z,0.20
2018-12-21T01:57:11.343Z,0.13
2018-12-21T01:59:40.497Z,0.43
2018-12-21T02:02:09.578Z,3.60
2018-12-21T02:04:38.707Z,0.40
2018-12-21T02:07:07.932Z,0.93
2018-12-21T02:09:37.078Z,0.00
2018-12-21T02:12:07.021Z,1.20
2018-12-21T02:14:36.139Z,0.90
2018-12-21T02:17:05.334Z,2.47
2018-12-21T02:19:34.539Z,6.27
2018-12-21T02:22:03.603Z,4.13
2018-12-21T02:24:32.767Z,10.80
2018-12-21T02:27:01.903Z,4.53
2018-12-21T02:29:31.074Z,8.27
2018-12-21T02:32:00.398Z,14.43
2018-12-21T02:34:29.463Z,19.53
2018-12-21T02:36:58.699Z,15.80
2018-12-21T02:39:27.863Z,16.23
2018-12-21T02:41:56.960Z,16.20
2018-12-21T02:44:26.265Z,18.40
2018-12-21T02:46:55.700Z,12.90
2018-12-21T02:49:24.817Z,10.73
2018-12-21T02:51:53.944Z,14.83
2018-12-21T02:54:23.072Z,20.93
2018-12-21T02:56:52.194Z,17.57
2018-12-21T02:59:21.382Z,16.23
2018-12-21T03:01:50.467Z,18.37
2018-12-21T03:04:19.652Z,15.60
2018-12-21T03:06:49.857Z,22.73
2018-12-21T03:09:19.086Z,17.43
2018-12-21T03:11:48.224Z,15.43
2018-12-21T03:14:18.383Z,19.10
2018-12-21T03:16:48.121Z,19.03
2018-12-21T03:19:18.278Z,23.07
2018-12-21T03:21:47.516Z,20.90
2018-12-21T03:24:17.277Z,22.60
2018-12-21T03:26:46.549Z,20.23
2018-12-21T03:29:15.756Z,20.93
2018-12-21T03:31:44.906Z,21.20
2018-12-21T03:34:14.125Z,20.80
2018-12-21T03:36:43.497Z,16.40
2018-12-21T03:39:13.168Z,22.07
2018-12-21T03:41:42.360Z,21.63
2018-12-21T03:44:11.518Z,24.47
2018-12-21T03:46:40.656Z,17.40
2018-12-21T03:49:09.765Z,22.40
2018-12-21T03:51:38.907Z,15.87
2018-12-21T03:54:08.157Z,19.07
2018-12-21T03:56:37.324Z,17.83
2018-12-21T03:59:06.579Z,16.93
2018-12-21T04:01:36.953Z,14.83
2018-12-21T04:04:06.141Z,13.90
2018-12-21T04:06:35.400Z,19.53
2018-12-21T04:09:05.018Z,19.43
2018-12-21T04:11:34.249Z,17.60
2018-12-21T04:14:04.166Z,20.03
2018-12-21T04:16:33.531Z,23.90
2018-12-21T04:19:02.838Z,15.70
2018-12-21T04:21:32.059Z,14.80
2018-12-21T04:24:01.297Z,20.63
2018-12-21T04:26:30.496Z,25.83
2018-12-21T04:28:59.592Z,29.47
2018-12-21T04:31:28.762Z,25.77
2018-12-21T04:33:57.959Z,33.93
2018-12-21T04:36:27.038Z,29.47
2018-12-21T04:38:56.741Z,39.60
2018-12-21T04:41:25.920Z,20.73
2018-12-21T04:43:55.105Z,33.23
2018-12-21T04:46:24.268Z,22.30
2018-12-21T04:48:53.513Z,24.43
2018-12-21T04:51:23.122Z,30.30
2018-12-21T04:53:52.982Z,33.93
2018-12-21T04:56:22.346Z,25.73
2018-12-21T04:58:51.507Z,21.93
2018-12-21T05:01:20.682Z,22.20
2018-12-21T05:03:49.778Z,20.80
2018-12-21T05:06:18.982Z,29.60
2018-12-21T05:08:49.805Z,17.97
2018-12-21T05:11:19.021Z,22.47
2018-12-21T05:13:48.162Z,23.37
2018-12-21T05:16:17.348Z,26.00
2018-12-21T05:18:46.447Z,29.67
2018-12-21T05:21:15.915Z,32.63
2018-12-21T05:23:45.024Z,33.83
2018-12-21T05:26:14.157Z,34.97
2018-12-21T05:28:43.300Z,33.83
2018-12-21T05:31:12.473Z,29.90
2018-12-21T05:33:41.806Z,38.17
2018-12-21T05:36:11.001Z,29.13
2018-12-21T05:38:40.166Z,21.93
2018-12-21T05:41:09.403Z,32.20
2018-12-21T05:43:38.572Z,24.83
2018-12-21T05:46:07.725Z,22.53
2018-12-21T05:48:36.892Z,25.47
2018-12-21T05:51:06.105Z,19.20
2018-12-21T05:53:35.230Z,21.67
2018-12-21T05:56:04.459Z,22.40
2018-12-21T05:58:34.648Z,21.60
2018-12-21T06:01:03.813Z,16.50
2018-12-21T06:03:32.975Z,31.47
2018-12-21T06:06:02.749Z,23.80
2018-12-21T06:08:31.947Z,27.90
2018-12-21T06:11:01.238Z,21.63
2018-12-21T06:13:30.928Z,40.77
2018-12-21T06:16:00.078Z,33.10
2018-12-21T06:18:29.296Z,38.47
2018-12-21T06:20:58.641Z,39.60
2018-12-21T06:23:27.801Z,37.10
2018-12-21T06:25:56.976Z,42.37
2018-12-21T06:28:26.067Z,33.23
2018-12-21T06:30:55.230Z,39.00
2018-12-21T06:33:24.448Z,45.80
2018-12-21T06:35:53.676Z,34.33
2018-12-21T06:38:22.926Z,43.33
2018-12-21T06:40:52.832Z,39.93
2018-12-21T06:43:22.001Z,41.30
2018-12-21T06:45:51.415Z,36.80
2018-12-21T06:48:20.623Z,46.60
2018-12-21T06:50:49.865Z,41.40
2018-12-21T06:53:18.990Z,34.73
2018-12-21T06:55:48.131Z,30.30
2018-12-21T06:58:17.997Z,47.37
2018-12-21T07:00:47.332Z,37.60
2018-12-21T07:03:17.407Z,41.03
2018-12-21T07:05:46.107Z,42.83
2018-12-21T07:08:18.039Z,34.17
2018-12-21T07:10:48.726Z,43.10
2018-12-21T07:13:17.948Z,45.93
2018-12-21T07:15:47.129Z,39.23
2018-12-21T07:18:16.280Z,53.70
2018-12-21T07:20:46.524Z,47.87
2018-12-21T07:23:15.795Z,40.27
2018-12-21T07:25:45.803Z,41.93
2018-12-21T07:28:14.955Z,50.47
2018-12-21T07:30:44.295Z,43.53
2018-12-21T07:33:13.401Z,43.00
2018-12-21T07:35:42.526Z,46.37
2018-12-21T07:38:11.740Z,50.53
2018-12-21T07:40:41.258Z,45.40
2018-12-21T07:43:10.441Z,42.30
2018-12-21T07:45:39.590Z,52.40
2018-12-21T07:48:08.751Z,42.50
2018-12-21T07:50:37.957Z,42.33
2018-12-21T07:53:07.194Z,36.90
2018-12-21T07:55:36.834Z,38.03
2018-12-21T07:58:06.419Z,40.20
2018-12-21T08:00:35.695Z,40.33
2018-12-21T08:03:05.160Z,48.37
2018-12-21T08:05:34.417Z,44.37
2018-12-21T08:08:04.474Z,46.33
2018-12-21T08:10:33.718Z,48.53
2018-12-21T08:13:03.203Z,37.27
2018-12-21T08:15:32.432Z,44.47
2018-12-21T08:18:06.337Z,34.47
2018-12-21T08:20:35.484Z,50.23
2018-12-21T08:23:04.866Z,40.80
2018-12-21T08:25:34.554Z,48.87
2018-12-21T08:28:03.800Z,47.67
2018-12-21T08:30:33.017Z,45.97
2018-12-21T08:33:02.185Z,50.20
2018-12-21T08:35:31.445Z,48.57
2018-12-21T08:38:00.566Z,49.03
2018-12-21T08:40:29.665Z,34.70
2018-12-21T08:43:00.081Z,45.07
2018-12-21T08:45:29.196Z,51.17
2018-12-21T08:47:58.294Z,48.87
2018-12-21T08:50:27.797Z,49.10
2018-12-21T08:52:57.790Z,63.17
2018-12-21T08:55:26.872Z,57.33
2018-12-21T08:57:57.375Z,42.70
2018-12-21T09:00:27.575Z,44.80
2018-12-21T09:02:57.143Z,52.57
2018-12-21T09:05:26.285Z,52.57
2018-12-21T09:07:55.711Z,41.63
2018-12-21T09:10:25.609Z,42.57
2018-12-21T09:12:55.341Z,48.10
2018-12-21T09:15:24.874Z,50.83
2018-12-21T09:17:54.268Z,49.00
2018-12-21T09:20:24.603Z,57.43
2018-12-21T09:22:53.676Z,39.57
2018-12-21T09:25:22.744Z,50.30
2018-12-21T09:27:51.862Z,53.20
2018-12-21T09:30:21.196Z,40.70
2018-12-21T09:32:50.441Z,49.20
2018-12-21T09:35:19.707Z,46.83
2018-12-21T09:37:48.944Z,43.17
2018-12-21T09:40:29.255Z,39.93
2018-12-21T09:42:59.478Z,37.87
2018-12-21T09:45:28.664Z,49.07
2018-12-21T09:47:57.913Z,42.63
2018-12-21T09:50:27.009Z,45.27
2018-12-21T09:52:56.275Z,44.47
2018-12-21T09:55:25.541Z,51.53
2018-12-21T09:57:54.652Z,43.80
2018-12-21T10:00:25.665Z,34.03
2018-12-21T10:02:54.759Z,37.00
2018-12-21T10:05:23.895Z,44.23
2018-12-21T10:07:53.012Z,45.70
2018-12-21T10:10:22.430Z,34.50
2018-12-21T10:12:53.437Z,56.97
2018-12-21T10:15:21.228Z,33.93
2018-12-21T10:17:50.263Z,39.97
2018-12-21T10:20:20.041Z,45.63
2018-12-21T10:22:48.419Z,45.33
2018-12-21T10:25:17.555Z,41.47
2018-12-21T10:27:46.882Z,30.40
2018-12-21T10:30:16.121Z,45.47
2018-12-21T10:32:45.874Z,30.73
2018-12-21T10:35:15.045Z,42.33
2018-12-21T10:37:44.116Z,39.43
2018-12-21T10:40:14.975Z,43.50
2018-12-21T10:42:44.134Z,41.80
2018-12-21T10:45:13.964Z,39.93
2018-12-21T10:47:43.215Z,35.73
2018-12-21T10:50:12.908Z,48.00
2018-12-21T10:52:42.001Z,37.53
2018-12-21T10:55:11.682Z,45.23
2018-12-21T10:57:44.771Z,51.00
2018-12-21T11:00:14.167Z,41.87
2018-12-21T11:02:43.367Z,41.20
2018-12-21T11:05:12.439Z,42.23
2018-12-21T11:07:41.995Z,42.23
2018-12-21T11:10:12.265Z,41.50
2018-12-21T11:12:41.357Z,33.43
2018-12-21T11:15:10.455Z,35.97
2018-12-21T11:17:39.639Z,38.10
2018-12-21T11:20:09.355Z,39.27
2018-12-21T11:22:38.430Z,45.30
2018-12-21T11:25:10.025Z,39.87
2018-12-21T11:27:39.142Z,37.57
2018-12-21T11:30:09.175Z,37.57
2018-12-21T11:32:39.963Z,35.77
2018-12-21T11:35:09.227Z,33.83
2018-12-21T11:37:38.307Z,32.33
2018-12-21T11:40:07.498Z,37.20
2018-12-21T11:42:36.719Z,45.00
2018-12-21T11:45:07.445Z,31.33
2018-12-21T11:47:38.082Z,45.40
2018-12-21T11:50:12.859Z,41.83
2018-12-21T11:52:42.035Z,39.37
2018-12-21T11:55:11.200Z,45.03
2018-12-21T11:57:40.273Z,43.80
2018-12-21T12:00:10.676Z,49.00
2018-12-21T12:02:39.720Z,39.73
2018-12-21T12:05:08.992Z,35.77
2018-12-21T12:07:38.216Z,37.77
2018-12-21T12:10:08.287Z,39.80
2018-12-21T12:12:39.300Z,34.30
2018-12-21T12:15:08.081Z,33.87
2018-12-21T12:17:37.857Z,29.07
2018-12-21T12:20:07.368Z,43.43
2018-12-21T12:22:47.197Z,43.33
2018-12-21T12:25:16.504Z,40.47
2018-12-21T12:27:46.019Z,42.90
2018-12-21T12:30:15.376Z,49.17
2018-12-21T12:32:44.617Z,41.23
2018-12-21T12:35:13.741Z,31.93
2018-12-21T12:37:43.560Z,41.83
2018-12-21T12:40:12.832Z,63.67
2018-12-21T12:42:42.339Z,37.50
2018-12-21T12:45:14.412Z,45.67
2018-12-21T12:47:43.854Z,37.63
2018-12-21T12:50:13.086Z,39.80
2018-12-21T12:52:43.254Z,42.10
2018-12-21T12:55:12.371Z,40.47
2018-12-21T12:57:42.563Z,40.00
2018-12-21T13:00:12.789Z,31.60
2018-12-21T13:02:42.116Z,31.07
2018-12-21T13:05:11.284Z,44.70
2018-12-21T13:07:40.450Z,35.07
2018-12-21T13:10:10.972Z,43.43
2018-12-21T13:12:41.068Z,37.13
2018-12-21T13:15:12.542Z,48.37
2018-12-21T13:17:41.668Z,31.97
2018-12-21T13:20:13.654Z,44.00
2018-12-21T13:22:43.030Z,45.03
2018-12-21T13:25:12.295Z,41.83
2018-12-21T13:27:41.543Z,39.73
2018-12-21T13:30:12.047Z,37.30
2018-12-21T13:32:40.932Z,32.63
2018-12-21T13:35:09.988Z,36.03
2018-12-21T13:37:39.382Z,35.57
2018-12-21T13:40:12.205Z,38.47
2018-12-21T13:42:46.123Z,31.37
2018-12-21T13:45:15.264Z,43.10
2018-12-21T13:47:44.401Z,25.70
2018-12-21T13:50:15.871Z,32.40
2018-12-21T13:52:45.235Z,31.57
2018-12-21T13:55:20.172Z,40.27
2018-12-21T13:57:44.085Z,37.67
2018-12-21T14:00:13.474Z,36.93
2018-12-21T14:02:42.703Z,41.50
2018-12-21T14:05:11.909Z,42.93
2018-12-21T14:10:14.816Z,36.93
2018-12-21T14:12:44.324Z,50.40
2018-12-21T14:15:14.482Z,31.27
2018-12-21T14:17:44.906Z,39.90
2018-12-21T14:23:41.530Z,32.27
2018-12-21T14:26:16.063Z,38.97
2018-12-21T14:28:45.889Z,25.13
2018-12-21T14:31:15.335Z,39.73
2018-12-21T14:33:44.484Z,32.87
2018-12-21T14:36:13.659Z,31.00
2018-12-21T14:38:42.755Z,36.10
2018-12-21T14:41:11.835Z,38.97
2018-12-21T14:43:41.042Z,40.40
2018-12-21T14:46:10.301Z,30.10
2018-12-21T14:48:39.474Z,36.23
2018-12-21T14:51:09.192Z,35.60
2018-12-21T14:53:38.422Z,41.27
2018-12-21T14:56:07.667Z,31.97
2018-12-21T14:58:37.036Z,39.10
2018-12-21T15:01:06.548Z,34.07
2018-12-21T15:03:36.078Z,26.23
2018-12-21T15:06:05.140Z,34.43
2018-12-21T15:08:34.294Z,30.53
2018-12-21T15:11:03.779Z,29.30
2018-12-21T15:13:32.869Z,34.03
2018-12-21T15:16:02.000Z,28.50
2018-12-21T15:18:31.134Z,33.80
2018-12-21T15:21:00.450Z,37.17
2018-12-21T15:23:29.696Z,29.13
2018-12-21T15:25:58.769Z,29.80
2018-12-21T15:28:28.105Z,31.97
2018-12-21T15:30:58.145Z,42.70
2018-12-21T15:33:27.839Z,41.73
2018-12-21T15:35:58.160Z,30.30
2018-12-21T15:38:27.426Z,33.97
2018-12-21T15:40:56.628Z,34.07
2018-12-21T15:43:25.773Z,38.90
2018-12-21T15:45:54.847Z,36.60
2018-12-21T15:48:23.993Z,48.47
2018-12-21T15:50:53.131Z,32.93
2018-12-21T15:53:22.960Z,30.90
2018-12-21T15:55:54.937Z,39.63
2018-12-21T15:58:21.569Z,24.57
2018-12-21T16:00:50.703Z,33.07
2018-12-21T16:03:19.779Z,35.53
2018-12-21T16:05:48.830Z,26.80
2018-12-21T16:08:24.338Z,34.93
2018-12-21T16:10:53.509Z,31.17
2018-12-21T16:13:22.653Z,36.67
2018-12-21T16:15:51.791Z,29.60
2018-12-21T16:18:21.882Z,37.57
2018-12-21T16:20:53.104Z,48.10
2018-12-21T16:23:23.279Z,34.70
2018-12-21T16:25:52.362Z,37.27
2018-12-21T16:28:21.558Z,47.00
2018-12-21T16:30:50.801Z,40.13
2018-12-21T16:33:20.104Z,46.37
2018-12-21T16:35:49.203Z,36.57
2018-12-21T16:38:18.453Z,38.40
2018-12-21T16:40:47.655Z,36.27
2018-12-21T16:43:16.692Z,47.90
2018-12-21T16:45:45.775Z,40.80
2018-12-21T16:48:18.207Z,36.90
2018-12-21T16:50:47.405Z,34.27
2018-12-21T16:53:16.559Z,47.20
2018-12-21T16:55:45.708Z,37.47
2018-12-21T16:58:14.878Z,38.40
2018-12-21T17:00:43.966Z,40.63
2018-12-21T17:03:15.709Z,42.23
2018-12-21T17:05:42.184Z,28.40
2018-12-21T17:08:11.324Z,36.50
2018-12-21T17:10:40.391Z,37.47
2018-12-21T17:13:09.514Z,73.80
2018-12-21T17:15:38.575Z,45.47
2018-12-21T17:18:08.662Z,34.53
2018-12-21T17:20:38.428Z,31.20
2018-12-21T17:23:07.509Z,38.07
2018-12-21T17:25:36.688Z,38.10
2018-12-21T17:28:18.635Z,36.23
2018-12-21T17:30:52.472Z,38.03
2018-12-21T17:33:21.651Z,38.23
2018-12-21T17:35:50.741Z,34.00
2018-12-21T17:38:20.483Z,40.03
2018-12-21T17:40:49.599Z,44.03
2018-12-21T17:43:18.675Z,30.70
2018-12-21T17:45:48.179Z,36.20
2018-12-21T17:48:18.170Z,38.37
2018-12-21T17:50:47.331Z,40.97
2018-12-21T17:53:16.387Z,26.90
2018-12-21T17:55:45.958Z,30.43
2018-12-21T17:58:15.835Z,27.37
2018-12-21T18:00:45.079Z,25.13
2018-12-21T18:03:29.034Z,19.93
2018-12-21T18:05:58.094Z,26.00
2018-12-21T18:08:28.001Z,13.97
2018-12-21T18:10:57.127Z,25.43
2018-12-21T18:13:26.245Z,27.03
2018-12-21T18:15:55.296Z,65.27
2018-12-21T18:18:25.277Z,33.70
2018-12-21T18:20:53.374Z,38.73
2018-12-21T18:23:22.751Z,38.67
2018-12-21T18:25:51.881Z,32.77
2018-12-21T18:28:25.530Z,39.47
2018-12-21T18:31:00.693Z,23.27
2018-12-21T18:33:29.786Z,29.63
2018-12-21T18:35:58.779Z,27.27
2018-12-21T18:38:30.027Z,32.53
2018-12-21T18:41:00.043Z,30.83
2018-12-21T18:43:29.250Z,26.00
2018-12-21T18:45:58.426Z,31.10
2018-12-21T18:48:27.658Z,42.07
2018-12-21T18:50:56.781Z,34.97
2018-12-21T18:53:25.958Z,46.47
2018-12-21T18:55:55.102Z,39.73
2018-12-21T18:58:24.273Z,52.97
2018-12-21T19:00:53.471Z,35.00
2018-12-21T19:03:22.716Z,49.73
2018-12-21T19:05:51.837Z,57.17
2018-12-21T19:08:21.313Z,32.80
2018-12-21T19:10:50.838Z,29.20
2018-12-21T19:13:19.896Z,47.23
2018-12-21T19:15:48.931Z,39.17
2018-12-21T19:18:22.400Z,29.00
2018-12-21T19:20:51.562Z,26.57
2018-12-21T19:23:20.603Z,21.80
2018-12-21T19:25:49.679Z,33.50
2018-12-21T19:28:18.770Z,29.00
2018-12-21T19:30:48.770Z,32.30
2018-12-21T19:33:17.852Z,26.57
2018-12-21T19:35:46.939Z,23.80
2018-12-21T19:38:16.153Z,19.33
2018-12-21T19:40:45.282Z,28.53
2018-12-21T19:43:14.474Z,28.80
2018-12-21T19:45:43.589Z,33.83
2018-12-21T19:48:12.763Z,23.63
2018-12-21T19:50:41.843Z,34.83
2018-12-21T19:53:10.879Z,35.17
2018-12-21T19:55:52.837Z,40.67
2018-12-21T19:58:21.901Z,38.80
2018-12-21T20:00:51.359Z,26.53
2018-12-21T20:03:20.587Z,30.73
2018-12-21T20:05:49.797Z,35.33
2018-12-21T20:08:18.944Z,36.67
2018-12-21T20:10:48.069Z,35.27
2018-12-21T20:13:17.918Z,33.43
2018-12-21T20:15:47.042Z,42.37
2018-12-21T20:18:16.252Z,46.97
2018-12-21T20:20:45.763Z,39.60
2018-12-21T20:23:14.981Z,30.17
2018-12-21T20:25:44.181Z,34.47
2018-12-21T20:28:14.299Z,40.40
2018-12-21T20:30:43.562Z,40.27
2018-12-21T20:33:12.626Z,46.97
2018-12-21T20:35:41.985Z,34.70
2018-12-21T20:38:11.144Z,32.07
2018-12-21T20:40:41.212Z,45.13
2018-12-21T20:43:10.291Z,42.33
2018-12-21T20:45:39.969Z,28.27
2018-12-21T20:48:09.518Z,41.07
2018-12-21T20:50:39.348Z,38.90
2018-12-21T20:53:08.492Z,34.43
2018-12-21T20:55:37.607Z,40.37
2018-12-21T20:58:44.146Z,37.50
2018-12-21T21:01:13.498Z,41.33
2018-12-21T21:03:42.700Z,35.50
2018-12-21T21:06:11.869Z,38.10
2018-12-21T21:08:41.471Z,37.90
2018-12-21T21:11:10.789Z,34.20
2018-12-21T21:13:46.562Z,36.13
2018-12-21T21:16:15.777Z,27.60
2018-12-21T21:18:44.970Z,33.77
2018-12-21T21:21:14.115Z,36.23
2018-12-21T21:23:43.899Z,38.80
2018-12-21T21:26:12.974Z,41.80
2018-12-21T21:28:42.033Z,39.57
2018-12-21T21:31:11.135Z,26.83
2018-12-21T21:33:40.212Z,35.33
2018-12-21T21:36:10.252Z,39.50
2018-12-21T21:38:40.723Z,31.23
2018-12-21T21:41:10.389Z,36.73
2018-12-21T21:43:39.501Z,42.73
2018-12-21T21:46:09.161Z,40.87
2018-12-21T21:48:38.289Z,28.03
2018-12-21T21:51:07.480Z,30.33
2018-12-21T21:53:40.881Z,39.20
2018-12-21T21:56:09.977Z,37.57
2018-12-21T21:58:39.131Z,39.10
2018-12-21T22:01:08.447Z,33.67
2018-12-21T22:03:38.532Z,28.57
2018-12-21T22:06:07.670Z,33.37
2018-12-21T22:08:36.988Z,34.23
2018-12-21T22:11:06.181Z,34.97
2018-12-21T22:13:36.832Z,32.57
2018-12-21T22:16:05.950Z,28.10
2018-12-21T22:18:35.127Z,30.83
2018-12-21T22:21:04.318Z,36.00
2018-12-21T22:23:33.551Z,22.37
2018-12-21T22:26:03.448Z,27.20
2018-12-21T22:28:32.543Z,28.20
2018-12-21T22:31:01.618Z,31.27
2018-12-21T22:33:30.764Z,28.30
2018-12-21T22:35:59.906Z,30.07
2018-12-21T22:38:29.046Z,19.67
2018-12-21T22:40:59.283Z,25.30
2018-12-21T22:43:28.439Z,23.30
2018-12-21T22:45:58.354Z,14.93
2018-12-21T22:48:27.561Z,23.23
2018-12-21T22:50:56.741Z,18.73
2018-12-21T22:53:25.940Z,16.67
2018-12-21T22:55:55.052Z,19.83
2018-12-21T22:58:25.039Z,15.50
2018-12-21T23:00:54.319Z,17.57
2018-12-21T23:03:24.646Z,27.77
2018-12-21T23:06:08.311Z,21.77
2018-12-21T23:08:38.113Z,16.83
2018-12-21T23:11:07.642Z,21.13
2018-12-21T23:13:36.751Z,18.70
2018-12-21T23:16:05.870Z,19.03
2018-12-21T23:18:35.010Z,26.07
2018-12-21T23:21:04.300Z,23.83
2018-12-21T23:23:34.011Z,20.70
2018-12-21T23:26:03.206Z,20.07
2018-12-21T23:28:32.371Z,23.53
2018-12-21T23:31:01.510Z,24.43
2018-12-21T23:33:30.572Z,25.47
2018-12-21T23:36:00.049Z,35.17
2018-12-21T23:38:29.115Z,25.90
2018-12-21T23:40:58.551Z,21.67
2018-12-21T23:43:27.619Z,27.53
2018-12-21T23:45:56.747Z,26.87
2018-12-21T23:48:25.804Z,31.10
2018-12-21T23:50:54.929Z,21.83
2018-12-21T23:53:24.055Z,27.73
2018-12-21T23:55:53.717Z,22.73
2018-12-21T23:58:22.755Z,31.83
